createdAt,value
2022-10-02T04:00:32.066Z,996.34
2022-10-02T04:05:31.989Z,996.32
2022-10-02T04:10:31.935Z,996.32
2022-10-02T04:15:31.882Z,996.32
2022-10-02T04:20:31.853Z,996.30
2022-10-02T04:25:31.772Z,996.31
2022-10-02T04:30:31.723Z,996.27
2022-10-02T04:35:31.667Z,996.31
2022-10-02T04:40:31.636Z,996.34
2022-10-02T04:45:31.605Z,996.40
2022-10-02T04:50:31.504Z,996.36
2022-10-02T04:55:31.450Z,996.43
2022-10-02T05:00:31.476Z,996.40
2022-10-02T05:05:31.340Z,996.35
2022-10-02T05:10:31.289Z,996.31
2022-10-02T05:15:31.236Z,996.32
2022-10-02T05:20:31.200Z,996.43
2022-10-02T05:25:31.124Z,996.59
2022-10-02T05:30:31.066Z,996.61
2022-10-02T05:35:31.015Z,996.61
2022-10-02T05:40:30.981Z,996.65
2022-10-02T05:45:30.907Z,996.67
2022-10-02T05:50:30.886Z,996.63
2022-10-02T05:55:30.793Z,996.60
2022-10-02T06:00:30.762Z,996.60
2022-10-02T06:05:30.688Z,996.40
2022-10-02T06:10:30.634Z,996.60
2022-10-02T06:15:30.578Z,996.72
2022-10-02T06:20:30.543Z,997.00
2022-10-02T06:25:30.469Z,997.11
2022-10-02T06:30:30.413Z,997.01
2022-10-02T06:35:30.358Z,997.05
2022-10-02T06:40:30.325Z,997.16
2022-10-02T06:45:30.289Z,997.16
2022-10-02T06:50:30.192Z,997.27
2022-10-02T06:55:30.137Z,997.27
2022-10-02T07:00:30.139Z,997.25
2022-10-02T07:05:30.036Z,997.39
2022-10-02T07:10:29.982Z,997.38
2022-10-02T07:15:29.917Z,997.46
2022-10-02T07:20:29.885Z,997.41
2022-10-02T07:25:29.806Z,997.36
2022-10-02T07:30:29.750Z,997.37
2022-10-02T07:35:29.705Z,997.47
2022-10-02T07:40:29.741Z,997.59
2022-10-02T07:45:29.640Z,997.63
2022-10-02T07:50:29.525Z,997.51
2022-10-02T07:55:29.487Z,997.71
2022-10-02T08:00:29.417Z,997.64
2022-10-02T08:05:29.359Z,997.70
2022-10-02T08:10:29.300Z,997.75
2022-10-02T08:15:29.240Z,997.86
2022-10-02T08:20:29.578Z,997.83
2022-10-02T08:25:29.145Z,997.90
2022-10-02T08:30:29.067Z,997.90
2022-10-02T08:35:29.024Z,997.92
2022-10-02T08:40:28.994Z,997.92
2022-10-02T08:45:28.947Z,997.98
2022-10-02T08:50:28.857Z,998.02
2022-10-02T08:55:28.817Z,998.09
2022-10-02T09:00:28.756Z,998.05
2022-10-02T09:05:28.693Z,998.05
2022-10-02T09:10:28.642Z,998.05
2022-10-02T09:15:28.573Z,998.08
2022-10-02T09:20:28.536Z,998.19
2022-10-02T09:25:28.479Z,998.21
2022-10-02T09:30:28.404Z,998.23
2022-10-02T09:35:28.359Z,998.26
2022-10-02T09:40:28.332Z,998.29
2022-10-02T09:45:28.260Z,998.26
2022-10-02T09:50:28.193Z,998.24
2022-10-02T09:55:28.137Z,998.26
2022-10-02T10:00:28.092Z,998.23
2022-10-02T10:05:28.025Z,998.30
2022-10-02T10:10:27.978Z,998.44
2022-10-02T10:15:34.974Z,998.37
2022-10-02T10:20:27.882Z,998.30
2022-10-02T10:25:27.795Z,998.48
2022-10-02T10:30:27.874Z,998.55
2022-10-02T10:35:27.726Z,998.70
2022-10-02T10:40:27.634Z,998.61
2022-10-02T10:45:27.650Z,998.62
2022-10-02T10:50:27.545Z,998.63
2022-10-02T10:55:27.490Z,998.83
2022-10-02T11:00:27.429Z,998.79
2022-10-02T11:05:27.380Z,998.76
2022-10-02T11:10:27.304Z,998.84
2022-10-02T11:15:27.283Z,998.85
2022-10-02T11:20:27.209Z,998.87
2022-10-02T11:25:27.149Z,999.00
2022-10-02T11:30:27.093Z,998.97
2022-10-02T11:35:27.060Z,998.97
2022-10-02T11:40:26.987Z,998.96
2022-10-02T11:45:26.991Z,999.02
2022-10-02T11:50:26.875Z,999.11
2022-10-02T11:55:26.840Z,999.07
2022-10-02T12:00:26.767Z,999.06
2022-10-02T12:05:26.714Z,999.08
2022-10-02T12:10:26.660Z,999.15
2022-10-02T12:15:26.626Z,999.07
2022-10-02T12:20:26.553Z,999.16
2022-10-02T12:25:26.541Z,999.16
2022-10-02T12:30:26.436Z,999.23
2022-10-02T12:35:26.405Z,999.18
2022-10-02T12:40:26.329Z,999.07
2022-10-02T12:45:26.276Z,999.02
2022-10-02T12:50:26.220Z,998.96
2022-10-02T12:55:26.186Z,998.91
2022-10-02T13:00:26.118Z,998.92
2022-10-02T13:05:26.061Z,998.98
2022-10-02T13:10:26.001Z,999.03
2022-10-02T13:15:25.968Z,999.01
2022-10-02T13:20:25.896Z,999.02
2022-10-02T13:25:25.914Z,998.98
2022-10-02T13:30:25.785Z,998.99
2022-10-02T13:35:25.746Z,998.98
2022-10-02T13:40:25.678Z,998.94
2022-10-02T13:45:25.674Z,998.94
2022-10-02T13:50:25.570Z,999.06
2022-10-02T13:55:25.530Z,999.10
2022-10-02T14:00:25.464Z,999.15
2022-10-02T14:05:25.407Z,999.18
2022-10-02T14:10:25.353Z,999.24
2022-10-02T14:15:25.323Z,999.20
2022-10-02T14:20:25.249Z,999.34
2022-10-02T14:25:25.191Z,999.39
2022-10-02T14:30:25.138Z,999.33
2022-10-02T14:35:25.098Z,999.42
2022-10-02T14:40:25.030Z,999.50
2022-10-02T14:45:25.013Z,999.54
2022-10-02T14:50:24.916Z,999.64
2022-10-02T14:55:24.883Z,999.66
2022-10-02T15:00:24.810Z,999.73
2022-10-02T15:05:24.825Z,999.73
2022-10-02T15:10:24.696Z,999.72
2022-10-02T15:15:24.662Z,999.74
2022-10-02T15:20:24.588Z,999.68
2022-10-02T15:25:24.531Z,999.71
2022-10-02T15:30:24.485Z,999.74
2022-10-02T15:35:24.441Z,999.79
2022-10-02T15:40:24.384Z,999.82
2022-10-02T15:45:24.312Z,999.91
2022-10-02T15:50:24.257Z,999.89
2022-10-02T15:55:24.231Z,999.90
2022-10-02T16:00:24.140Z,999.99
2022-10-02T16:05:24.095Z,1000.04
2022-10-02T16:10:24.037Z,1000.04
2022-10-02T16:15:31.035Z,1000.15
2022-10-02T16:20:23.929Z,1000.08
2022-10-02T16:25:23.878Z,1000.16
2022-10-02T16:30:23.820Z,1000.26
2022-10-02T16:35:23.785Z,1000.38
2022-10-02T16:40:23.707Z,1000.48
2022-10-02T16:45:23.691Z,1000.52
2022-10-02T16:50:23.599Z,1000.58
2022-10-02T16:55:23.559Z,1000.77
2022-10-02T17:00:23.492Z,1000.79
2022-10-02T17:05:23.455Z,1000.90
2022-10-02T17:10:23.380Z,1001.09
2022-10-02T17:15:23.345Z,1001.17
2022-10-02T17:20:23.270Z,1001.26
2022-10-02T17:25:23.211Z,1001.31
2022-10-02T17:30:23.145Z,1001.45
2022-10-02T17:35:23.113Z,1001.56
2022-10-02T17:40:23.045Z,1001.69
2022-10-02T17:45:23.046Z,1001.75
2022-10-02T17:50:22.936Z,1001.86
2022-10-02T17:55:22.905Z,1001.93
2022-10-02T18:00:22.827Z,1002.06
2022-10-02T18:05:22.767Z,1002.12
2022-10-02T18:10:22.715Z,1002.17
2022-10-02T18:15:22.675Z,1002.24
2022-10-02T18:20:22.603Z,1002.34
2022-10-02T18:25:22.545Z,1002.41
2022-10-02T18:30:22.497Z,1002.41
2022-10-02T18:35:22.444Z,1002.42
2022-10-02T18:40:22.386Z,1002.49
2022-10-02T18:45:22.344Z,1002.57
2022-10-02T18:50:22.265Z,1002.68
2022-10-02T18:55:22.231Z,1002.86
2022-10-02T19:00:22.160Z,1002.81
2022-10-02T19:05:22.102Z,1002.93
2022-10-02T19:10:22.048Z,1003.00
2022-10-02T19:15:22.010Z,1003.01
2022-10-02T19:20:21.936Z,1003.12
2022-10-02T19:25:21.878Z,1003.12
2022-10-02T19:30:21.824Z,1003.15
2022-10-02T19:35:21.793Z,1003.29
2022-10-02T19:40:21.713Z,1003.37
2022-10-02T19:45:25.120Z,1003.45
2022-10-02T19:50:21.606Z,1003.49
2022-10-02T19:55:21.582Z,1003.54
2022-10-02T20:00:21.652Z,1003.58
2022-10-02T20:05:21.434Z,1003.68
2022-10-02T20:10:21.392Z,1003.78
2022-10-02T20:15:21.370Z,1003.83
2022-10-02T20:20:21.272Z,1003.89
2022-10-02T20:25:21.236Z,1003.92
2022-10-02T20:30:21.175Z,1003.98
2022-10-02T20:35:21.136Z,1004.09
2022-10-02T20:40:21.073Z,1004.21
2022-10-02T20:45:21.013Z,1004.18
2022-10-02T20:50:20.959Z,1004.31
2022-10-02T20:55:20.930Z,1004.41
2022-10-02T21:00:20.852Z,1004.46
2022-10-02T21:05:20.800Z,1004.47
2022-10-02T21:10:20.748Z,1004.58
2022-10-02T21:15:20.702Z,1004.56
2022-10-02T21:20:33.413Z,1004.77
2022-10-02T21:25:21.581Z,1004.75
2022-10-02T21:30:20.529Z,1004.77
2022-10-02T21:35:20.498Z,1004.81
2022-10-02T21:40:20.503Z,1004.75
2022-10-02T21:45:20.383Z,1004.82
2022-10-02T21:50:20.305Z,1005.07
2022-10-02T21:55:20.283Z,1005.13
2022-10-02T22:00:20.205Z,1005.15
2022-10-02T22:05:20.156Z,1005.19
2022-10-02T22:10:20.099Z,1005.27
2022-10-02T22:15:20.070Z,1005.36
2022-10-02T22:20:27.028Z,1005.36
2022-10-02T22:25:19.943Z,1005.45
2022-10-02T22:30:19.894Z,1005.45
2022-10-02T22:35:19.837Z,1005.46
2022-10-02T22:40:19.780Z,1005.56
2022-10-02T22:45:19.725Z,1005.59
2022-10-02T22:50:19.869Z,1005.63
2022-10-02T22:55:19.641Z,1005.59
2022-10-02T23:00:19.580Z,1005.65
2022-10-02T23:05:19.633Z,1005.67
2022-10-02T23:10:19.456Z,1005.79
2022-10-02T23:15:19.419Z,1005.67
2022-10-02T23:20:19.346Z,1005.75
2022-10-02T23:25:19.291Z,1005.66
